CheckWX is a tool to help pilots better visualize weather data.  It is not intended as a substitute for an official pre-flight weather briefing.

06:51:21 UTC

PAGA METAR
Edward G Pitka Sr Airport
Galena, Alaska, USA
Current

55 mins ago

PAGA 230556Z AUTO 10014KT 10SM CLR M09/M12 A3027 RMK AO2 SLP254 T10891117 11078 21089 52004 FZRANO
Observed
Feb-23 @ 05:56 UTC
Wind
  • 100° at 14 KTS
Visibility
10 SM
Flight Rules
VFR
Cloud Levels
  • Clear skies
Temperature
-9°C / 16°F
Dewpoint
-12°C / 10°F
Humidity
79%
Altimeter
30.27" Hg
Pressure
1025.4 hPa
Previous

2 hours ago

PAGA 230456Z AUTO 09007KT 10SM CLR M08/M11 A3026 RMK AO2 SLP252 T10831111 FZRANO
Observed
Feb-23 @ 04:56 UTC
Wind
  • 090° at 7 KTS
Visibility
10 SM
Flight Rules
VFR
Cloud Levels
  • Clear skies
Temperature
-8°C / 18°F
Dewpoint
-11°C / 12°F
Humidity
79%
Altimeter
30.26" Hg
Pressure
1025.2 hPa
Previous

3 hours ago

PAGA 230356Z AUTO 11011KT 10SM CLR M08/M11 A3026 RMK AO2 SLP252 T10781111 FZRANO
Observed
Feb-23 @ 03:56 UTC
Wind
  • 110° at 11 KTS
Visibility
10 SM
Flight Rules
VFR
Cloud Levels
  • Clear skies
Temperature
-8°C / 18°F
Dewpoint
-11°C / 12°F
Humidity
79%
Altimeter
30.26" Hg
Pressure
1025.2 hPa